sensor_id;sensor_type;location;lat;lon;timestamp;P1;durP1;ratioP1;P2;durP2;ratioP2
462;SDS011;218;51.902;9.542;2023-07-13T00:01:44;4.03;;;3.53;;
462;SDS011;218;51.902;9.542;2023-07-13T00:04:14;4.20;;;3.80;;
462;SDS011;218;51.902;9.542;2023-07-13T00:06:44;4.37;;;3.63;;
462;SDS011;218;51.902;9.542;2023-07-13T00:09:11;3.30;;;3.00;;
462;SDS011;218;51.902;9.542;2023-07-13T00:11:39;4.10;;;3.80;;
462;SDS011;218;51.902;9.542;2023-07-13T00:14:06;3.47;;;3.27;;
462;SDS011;218;51.902;9.542;2023-07-13T00:16:34;3.60;;;3.27;;
462;SDS011;218;51.902;9.542;2023-07-13T00:19:02;4.40;;;3.67;;
462;SDS011;218;51.902;9.542;2023-07-13T00:21:29;3.50;;;3.27;;
462;SDS011;218;51.902;9.542;2023-07-13T00:23:57;3.83;;;3.53;;
462;SDS011;218;51.902;9.542;2023-07-13T00:26:26;3.80;;;3.50;;
462;SDS011;218;51.902;9.542;2023-07-13T00:28:53;3.13;;;2.97;;
462;SDS011;218;51.902;9.542;2023-07-13T00:31:20;4.40;;;3.47;;
462;SDS011;218;51.902;9.542;2023-07-13T00:33:47;3.60;;;3.33;;
462;SDS011;218;51.902;9.542;2023-07-13T00:36:14;4.30;;;3.60;;
462;SDS011;218;51.902;9.542;2023-07-13T00:38:41;4.23;;;3.80;;
462;SDS011;218;51.902;9.542;2023-07-13T00:41:10;4.10;;;3.80;;
462;SDS011;218;51.902;9.542;2023-07-13T00:43:37;3.93;;;3.63;;
462;SDS011;218;51.902;9.542;2023-07-13T00:48:53;4.10;;;3.90;;
462;SDS011;218;51.902;9.542;2023-07-13T00:51:25;3.67;;;3.40;;
462;SDS011;218;51.902;9.542;2023-07-13T00:53:54;4.40;;;4.00;;
462;SDS011;218;51.902;9.542;2023-07-13T00:56:25;4.23;;;4.03;;
462;SDS011;218;51.902;9.542;2023-07-13T00:58:53;3.87;;;3.57;;
462;SDS011;218;51.902;9.542;2023-07-13T01:01:21;4.50;;;4.10;;
462;SDS011;218;51.902;9.542;2023-07-13T01:03:47;3.87;;;3.67;;
462;SDS011;218;51.902;9.542;2023-07-13T01:06:15;4.67;;;3.87;;
462;SDS011;218;51.902;9.542;2023-07-13T01:08:43;4.10;;;3.80;;
462;SDS011;218;51.902;9.542;2023-07-13T01:11:10;3.70;;;3.50;;
462;SDS011;218;51.902;9.542;2023-07-13T01:13:39;4.00;;;3.70;;
462;SDS011;218;51.902;9.542;2023-07-13T01:16:11;4.43;;;4.13;;
462;SDS011;218;51.902;9.542;2023-07-13T01:18:44;4.30;;;3.80;;
462;SDS011;218;51.902;9.542;2023-07-13T01:21:12;4.13;;;3.73;;
462;SDS011;218;51.902;9.542;2023-07-13T01:23:39;5.43;;;5.10;;
462;SDS011;218;51.902;9.542;2023-07-13T01:26:06;4.17;;;3.87;;
462;SDS011;218;51.902;9.542;2023-07-13T01:28:33;4.83;;;4.47;;
462;SDS011;218;51.902;9.542;2023-07-13T01:31:02;5.50;;;4.53;;
462;SDS011;218;51.902;9.542;2023-07-13T01:33:29;4.60;;;4.30;;
462;SDS011;218;51.902;9.542;2023-07-13T01:35:57;4.10;;;3.77;;
462;SDS011;218;51.902;9.542;2023-07-13T01:38:25;4.10;;;3.90;;
462;SDS011;218;51.902;9.542;2023-07-13T01:40:53;4.03;;;3.83;;
462;SDS011;218;51.902;9.542;2023-07-13T01:43:20;4.67;;;4.27;;
462;SDS011;218;51.902;9.542;2023-07-13T01:45:47;4.07;;;3.77;;
462;SDS011;218;51.902;9.542;2023-07-13T01:48:14;3.67;;;3.43;;
462;SDS011;218;51.902;9.542;2023-07-13T01:50:41;4.17;;;3.87;;
462;SDS011;218;51.902;9.542;2023-07-13T01:53:08;4.23;;;3.90;;
462;SDS011;218;51.902;9.542;2023-07-13T01:55:37;3.63;;;3.43;;
462;SDS011;218;51.902;9.542;2023-07-13T01:58:04;4.27;;;4.07;;
462;SDS011;218;51.902;9.542;2023-07-13T02:00:31;4.40;;;4.20;;
462;SDS011;218;51.902;9.542;2023-07-13T02:02:59;4.47;;;4.10;;
462;SDS011;218;51.902;9.542;2023-07-13T02:05:26;4.00;;;3.47;;
462;SDS011;218;51.902;9.542;2023-07-13T02:07:53;5.50;;;3.80;;
462;SDS011;218;51.902;9.542;2023-07-13T02:10:20;3.80;;;3.50;;
462;SDS011;218;51.902;9.542;2023-07-13T02:12:49;4.23;;;4.03;;
462;SDS011;218;51.902;9.542;2023-07-13T02:15:17;3.40;;;3.20;;
462;SDS011;218;51.902;9.542;2023-07-13T02:17:44;5.60;;;4.33;;
462;SDS011;218;51.902;9.542;2023-07-13T02:20:11;4.50;;;4.20;;
462;SDS011;218;51.902;9.542;2023-07-13T02:22:38;4.13;;;3.70;;
462;SDS011;218;51.902;9.542;2023-07-13T02:25:05;4.23;;;4.03;;
462;SDS011;218;51.902;9.542;2023-07-13T02:27:33;4.53;;;4.23;;
462;SDS011;218;51.902;9.542;2023-07-13T02:30:01;3.97;;;3.67;;
462;SDS011;218;51.902;9.542;2023-07-13T02:32:28;4.07;;;3.87;;
462;SDS011;218;51.902;9.542;2023-07-13T02:34:55;3.63;;;3.42;;
462;SDS011;218;51.902;9.542;2023-07-13T02:37:22;3.80;;;3.50;;
462;SDS011;218;51.902;9.542;2023-07-13T02:39:49;4.43;;;4.13;;
462;SDS011;218;51.902;9.542;2023-07-13T02:42:16;3.60;;;3.30;;
462;SDS011;218;51.902;9.542;2023-07-13T02:44:43;4.50;;;4.20;;
462;SDS011;218;51.902;9.542;2023-07-13T02:47:11;4.90;;;4.20;;
462;SDS011;218;51.902;9.542;2023-07-13T02:49:39;3.60;;;3.30;;
462;SDS011;218;51.902;9.542;2023-07-13T02:52:06;4.53;;;4.30;;
462;SDS011;218;51.902;9.542;2023-07-13T02:54:33;4.20;;;3.90;;
462;SDS011;218;51.902;9.542;2023-07-13T02:57:00;4.40;;;4.10;;
462;SDS011;218;51.902;9.542;2023-07-13T02:59:27;5.55;;;4.20;;
462;SDS011;218;51.902;9.542;2023-07-13T03:01:54;4.10;;;3.80;;
462;SDS011;218;51.902;9.542;2023-07-13T03:04:22;4.03;;;3.73;;
462;SDS011;218;51.902;9.542;2023-07-13T03:06:50;4.30;;;3.87;;
462;SDS011;218;51.902;9.542;2023-07-13T03:09:16;3.80;;;3.53;;
462;SDS011;218;51.902;9.542;2023-07-13T03:11:44;4.53;;;4.20;;
462;SDS011;218;51.902;9.542;2023-07-13T03:14:11;4.57;;;3.58;;
462;SDS011;218;51.902;9.542;2023-07-13T03:16:38;3.83;;;3.60;;
462;SDS011;218;51.902;9.542;2023-07-13T03:19:05;4.70;;;4.40;;
462;SDS011;218;51.902;9.542;2023-07-13T03:21:34;4.73;;;4.33;;
462;SDS011;218;51.902;9.542;2023-07-13T03:24:01;4.03;;;3.77;;
462;SDS011;218;51.902;9.542;2023-07-13T03:26:28;4.07;;;3.67;;
462;SDS011;218;51.902;9.542;2023-07-13T03:28:55;4.50;;;4.10;;
462;SDS011;218;51.902;9.542;2023-07-13T03:31:24;5.00;;;4.80;;
462;SDS011;218;51.902;9.542;2023-07-13T03:33:53;3.80;;;3.50;;
462;SDS011;218;51.902;9.542;2023-07-13T03:36:23;5.00;;;4.60;;
462;SDS011;218;51.902;9.542;2023-07-13T03:38:53;4.13;;;3.93;;
462;SDS011;218;51.902;9.542;2023-07-13T03:41:29;4.57;;;4.17;;
462;SDS011;218;51.902;9.542;2023-07-13T03:43:56;4.63;;;4.33;;
462;SDS011;218;51.902;9.542;2023-07-13T03:46:24;4.50;;;4.10;;
462;SDS011;218;51.902;9.542;2023-07-13T03:48:51;4.10;;;3.87;;
462;SDS011;218;51.902;9.542;2023-07-13T03:51:18;4.85;;;3.78;;
462;SDS011;218;51.902;9.542;2023-07-13T03:53:46;4.75;;;4.45;;
462;SDS011;218;51.902;9.542;2023-07-13T03:56:14;4.53;;;3.80;;
462;SDS011;218;51.902;9.542;2023-07-13T03:58:43;4.70;;;4.30;;
462;SDS011;218;51.902;9.542;2023-07-13T04:01:12;4.07;;;3.78;;
462;SDS011;218;51.902;9.542;2023-07-13T04:03:40;3.80;;;3.50;;
462;SDS011;218;51.902;9.542;2023-07-13T04:06:08;4.40;;;4.10;;
462;SDS011;218;51.902;9.542;2023-07-13T04:08:46;3.97;;;3.50;;
462;SDS011;218;51.902;9.542;2023-07-13T04:11:14;5.13;;;4.83;;
462;SDS011;218;51.902;9.542;2023-07-13T04:13:42;3.70;;;3.40;;
462;SDS011;218;51.902;9.542;2023-07-13T04:16:09;4.43;;;4.03;;
462;SDS011;218;51.902;9.542;2023-07-13T04:18:36;5.47;;;3.93;;
462;SDS011;218;51.902;9.542;2023-07-13T04:21:04;4.00;;;3.63;;
462;SDS011;218;51.902;9.542;2023-07-13T04:23:30;4.30;;;4.00;;
462;SDS011;218;51.902;9.542;2023-07-13T04:25:58;4.20;;;4.00;;
462;SDS011;218;51.902;9.542;2023-07-13T04:28:25;4.20;;;3.90;;
462;SDS011;218;51.902;9.542;2023-07-13T04:30:54;4.60;;;4.17;;
462;SDS011;218;51.902;9.542;2023-07-13T04:33:21;4.23;;;4.03;;
462;SDS011;218;51.902;9.542;2023-07-13T04:35:49;4.20;;;4.00;;
462;SDS011;218;51.902;9.542;2023-07-13T04:38:19;4.73;;;4.43;;
462;SDS011;218;51.902;9.542;2023-07-13T04:40:47;4.13;;;3.93;;
462;SDS011;218;51.902;9.542;2023-07-13T04:43:14;4.50;;;4.20;;
462;SDS011;218;51.902;9.542;2023-07-13T04:45:41;5.83;;;4.00;;
462;SDS011;218;51.902;9.542;2023-07-13T04:48:09;4.53;;;4.33;;
462;SDS011;218;51.902;9.542;2023-07-13T04:50:37;3.90;;;3.60;;
462;SDS011;218;51.902;9.542;2023-07-13T04:53:04;4.22;;;3.97;;
462;SDS011;218;51.902;9.542;2023-07-13T04:55:32;5.22;;;4.72;;
462;SDS011;218;51.902;9.542;2023-07-13T04:57:59;4.37;;;3.97;;
462;SDS011;218;51.902;9.542;2023-07-13T05:00:27;4.70;;;4.30;;
462;SDS011;218;51.902;9.542;2023-07-13T05:02:55;4.73;;;4.40;;
462;SDS011;218;51.902;9.542;2023-07-13T05:05:25;4.97;;;4.67;;
462;SDS011;218;51.902;9.542;2023-07-13T05:07:52;5.23;;;4.73;;
462;SDS011;218;51.902;9.542;2023-07-13T05:10:19;6.82;;;5.20;;
462;SDS011;218;51.902;9.542;2023-07-13T05:12:47;4.67;;;4.27;;
462;SDS011;218;51.902;9.542;2023-07-13T05:15:14;5.20;;;4.70;;
462;SDS011;218;51.902;9.542;2023-07-13T05:17:41;6.47;;;5.20;;
462;SDS011;218;51.902;9.542;2023-07-13T05:20:08;5.40;;;5.00;;
462;SDS011;218;51.902;9.542;2023-07-13T05:22:37;5.03;;;4.53;;
462;SDS011;218;51.902;9.542;2023-07-13T05:25:04;4.87;;;4.57;;
462;SDS011;218;51.902;9.542;2023-07-13T05:27:32;6.30;;;5.20;;
462;SDS011;218;51.902;9.542;2023-07-13T05:29:59;5.23;;;4.83;;
462;SDS011;218;51.902;9.542;2023-07-13T05:32:26;5.30;;;4.90;;
462;SDS011;218;51.902;9.542;2023-07-13T05:34:54;5.50;;;5.10;;
462;SDS011;218;51.902;9.542;2023-07-13T05:37:21;5.43;;;4.93;;
462;SDS011;218;51.902;9.542;2023-07-13T05:39:49;5.50;;;4.40;;
462;SDS011;218;51.902;9.542;2023-07-13T05:42:17;10.10;;;4.80;;
462;SDS011;218;51.902;9.542;2023-07-13T05:44:44;4.93;;;4.53;;
462;SDS011;218;51.902;9.542;2023-07-13T05:47:11;4.93;;;4.50;;
462;SDS011;218;51.902;9.542;2023-07-13T05:49:39;4.90;;;4.50;;
462;SDS011;218;51.902;9.542;2023-07-13T05:52:06;4.20;;;3.90;;
462;SDS011;218;51.902;9.542;2023-07-13T05:54:33;4.13;;;3.77;;
462;SDS011;218;51.902;9.542;2023-07-13T05:57:02;4.37;;;3.93;;
462;SDS011;218;51.902;9.542;2023-07-13T05:59:29;3.70;;;3.37;;
462;SDS011;218;51.902;9.542;2023-07-13T06:01:56;3.80;;;3.50;;
462;SDS011;218;51.902;9.542;2023-07-13T06:04:23;3.47;;;3.23;;
462;SDS011;218;51.902;9.542;2023-07-13T06:06:50;5.07;;;3.67;;
462;SDS011;218;51.902;9.542;2023-07-13T06:09:17;3.33;;;3.10;;
462;SDS011;218;51.902;9.542;2023-07-13T06:11:44;4.20;;;2.70;;
462;SDS011;218;51.902;9.542;2023-07-13T06:14:12;3.10;;;2.90;;
462;SDS011;218;51.902;9.542;2023-07-13T06:16:40;3.87;;;2.90;;
462;SDS011;218;51.902;9.542;2023-07-13T06:19:07;4.60;;;2.77;;
462;SDS011;218;51.902;9.542;2023-07-13T06:21:34;4.50;;;2.80;;
462;SDS011;218;51.902;9.542;2023-07-13T06:24:01;3.50;;;3.30;;
462;SDS011;218;51.902;9.542;2023-07-13T06:26:28;5.33;;;3.17;;
462;SDS011;218;51.902;9.542;2023-07-13T06:28:55;3.10;;;2.90;;
462;SDS011;218;51.902;9.542;2023-07-13T06:31:23;2.80;;;2.50;;
462;SDS011;218;51.902;9.542;2023-07-13T06:33:51;3.97;;;2.67;;
462;SDS011;218;51.902;9.542;2023-07-13T06:36:18;4.17;;;2.97;;
462;SDS011;218;51.902;9.542;2023-07-13T06:38:45;3.97;;;2.20;;
462;SDS011;218;51.902;9.542;2023-07-13T06:41:12;2.37;;;2.17;;
462;SDS011;218;51.902;9.542;2023-07-13T06:43:39;5.60;;;3.23;;
462;SDS011;218;51.902;9.542;2023-07-13T06:46:06;3.00;;;2.57;;
462;SDS011;218;51.902;9.542;2023-07-13T06:48:35;2.83;;;2.53;;
462;SDS011;218;51.902;9.542;2023-07-13T06:51:02;3.10;;;2.13;;
462;SDS011;218;51.902;9.542;2023-07-13T06:53:29;2.20;;;2.00;;
462;SDS011;218;51.902;9.542;2023-07-13T06:55:56;4.10;;;2.23;;
462;SDS011;218;51.902;9.542;2023-07-13T06:58:23;2.80;;;2.33;;
462;SDS011;218;51.902;9.542;2023-07-13T07:00:50;4.63;;;2.50;;
462;SDS011;218;51.902;9.542;2023-07-13T07:03:17;3.70;;;2.47;;
462;SDS011;218;51.902;9.542;2023-07-13T07:05:46;3.97;;;2.30;;
462;SDS011;218;51.902;9.542;2023-07-13T07:08:13;3.07;;;2.30;;
462;SDS011;218;51.902;9.542;2023-07-13T07:10:40;3.47;;;2.40;;
462;SDS011;218;51.902;9.542;2023-07-13T07:13:07;3.37;;;2.30;;
462;SDS011;218;51.902;9.542;2023-07-13T07:15:34;2.97;;;2.50;;
462;SDS011;218;51.902;9.542;2023-07-13T07:18:01;2.53;;;2.17;;
462;SDS011;218;51.902;9.542;2023-07-13T07:20:28;5.27;;;2.50;;
462;SDS011;218;51.902;9.542;2023-07-13T07:22:57;2.43;;;2.13;;
462;SDS011;218;51.902;9.542;2023-07-13T07:25:24;3.07;;;2.07;;
462;SDS011;218;51.902;9.542;2023-07-13T07:27:50;2.93;;;2.30;;
462;SDS011;218;51.902;9.542;2023-07-13T07:30:17;4.10;;;2.90;;
462;SDS011;218;51.902;9.542;2023-07-13T07:32:44;3.93;;;2.27;;
462;SDS011;218;51.902;9.542;2023-07-13T07:35:11;3.33;;;3.00;;
462;SDS011;218;51.902;9.542;2023-07-13T07:37:38;7.57;;;2.57;;
462;SDS011;218;51.902;9.542;2023-07-13T07:40:07;2.53;;;2.33;;
462;SDS011;218;51.902;9.542;2023-07-13T07:42:34;2.53;;;2.03;;
462;SDS011;218;51.902;9.542;2023-07-13T07:45:01;4.50;;;2.57;;
462;SDS011;218;51.902;9.542;2023-07-13T07:47:28;2.53;;;2.30;;
462;SDS011;218;51.902;9.542;2023-07-13T07:49:55;2.70;;;2.50;;
462;SDS011;218;51.902;9.542;2023-07-13T07:52:22;4.67;;;2.50;;
462;SDS011;218;51.902;9.542;2023-07-13T07:54:49;3.87;;;3.03;;
462;SDS011;218;51.902;9.542;2023-07-13T07:57:17;5.13;;;2.97;;
462;SDS011;218;51.902;9.542;2023-07-13T07:59:44;2.27;;;2.07;;
462;SDS011;218;51.902;9.542;2023-07-13T08:02:11;2.50;;;2.30;;
462;SDS011;218;51.902;9.542;2023-07-13T08:04:38;2.87;;;2.67;;
462;SDS011;218;51.902;9.542;2023-07-13T08:07:05;6.70;;;2.73;;
462;SDS011;218;51.902;9.542;2023-07-13T08:09:32;4.40;;;2.80;;
462;SDS011;218;51.902;9.542;2023-07-13T08:11:59;3.53;;;3.00;;
462;SDS011;218;51.902;9.542;2023-07-13T08:14:27;2.43;;;2.20;;
462;SDS011;218;51.902;9.542;2023-07-13T08:16:54;3.00;;;2.70;;
462;SDS011;218;51.902;9.542;2023-07-13T08:19:21;4.30;;;2.67;;
462;SDS011;218;51.902;9.542;2023-07-13T08:21:48;2.77;;;2.10;;
462;SDS011;218;51.902;9.542;2023-07-13T08:24:15;4.10;;;2.43;;
462;SDS011;218;51.902;9.542;2023-07-13T08:26:43;3.97;;;2.70;;
462;SDS011;218;51.902;9.542;2023-07-13T08:29:11;3.30;;;2.70;;
462;SDS011;218;51.902;9.542;2023-07-13T08:31:39;3.37;;;2.10;;
462;SDS011;218;51.902;9.542;2023-07-13T08:34:06;3.10;;;2.20;;
462;SDS011;218;51.902;9.542;2023-07-13T08:36:33;6.07;;;2.93;;
462;SDS011;218;51.902;9.542;2023-07-13T08:38:59;3.37;;;2.27;;
462;SDS011;218;51.902;9.542;2023-07-13T08:41:26;5.63;;;3.33;;
462;SDS011;218;51.902;9.542;2023-07-13T08:43:55;6.40;;;3.43;;
462;SDS011;218;51.902;9.542;2023-07-13T08:46:25;3.70;;;2.83;;
462;SDS011;218;51.902;9.542;2023-07-13T08:48:57;4.53;;;2.50;;
462;SDS011;218;51.902;9.542;2023-07-13T08:51:28;3.97;;;2.40;;
462;SDS011;218;51.902;9.542;2023-07-13T08:54:01;4.27;;;2.47;;
462;SDS011;218;51.902;9.542;2023-07-13T08:56:30;3.10;;;2.90;;
462;SDS011;218;51.902;9.542;2023-07-13T08:59:00;5.43;;;2.77;;
462;SDS011;218;51.902;9.542;2023-07-13T09:01:33;5.00;;;3.53;;
462;SDS011;218;51.902;9.542;2023-07-13T09:04:15;3.47;;;2.43;;
462;SDS011;218;51.902;9.542;2023-07-13T09:06:49;2.73;;;2.43;;
462;SDS011;218;51.902;9.542;2023-07-13T09:09:29;3.27;;;2.70;;
462;SDS011;218;51.902;9.542;2023-07-13T09:12:08;5.57;;;2.90;;
462;SDS011;218;51.902;9.542;2023-07-13T09:14:44;3.40;;;2.20;;
462;SDS011;218;51.902;9.542;2023-07-13T09:17:16;3.37;;;2.37;;
462;SDS011;218;51.902;9.542;2023-07-13T09:19:48;4.03;;;2.80;;
462;SDS011;218;51.902;9.542;2023-07-13T09:22:20;3.10;;;2.40;;
462;SDS011;218;51.902;9.542;2023-07-13T09:24:52;3.70;;;2.43;;
462;SDS011;218;51.902;9.542;2023-07-13T09:27:27;3.13;;;2.07;;
462;SDS011;218;51.902;9.542;2023-07-13T09:30:03;2.60;;;2.40;;
462;SDS011;218;51.902;9.542;2023-07-13T09:32:47;3.87;;;2.50;;
462;SDS011;218;51.902;9.542;2023-07-13T09:35:18;3.53;;;2.33;;
462;SDS011;218;51.902;9.542;2023-07-13T09:37:47;4.27;;;2.20;;
462;SDS011;218;51.902;9.542;2023-07-13T09:40:17;2.83;;;2.20;;
462;SDS011;218;51.902;9.542;2023-07-13T09:42:51;5.37;;;2.50;;
462;SDS011;218;51.902;9.542;2023-07-13T09:45:26;2.83;;;2.13;;
462;SDS011;218;51.902;9.542;2023-07-13T09:47:58;3.73;;;2.60;;
462;SDS011;218;51.902;9.542;2023-07-13T09:50:30;2.23;;;2.00;;
462;SDS011;218;51.902;9.542;2023-07-13T09:52:57;3.10;;;2.70;;
462;SDS011;218;51.902;9.542;2023-07-13T09:55:29;4.67;;;2.23;;
462;SDS011;218;51.902;9.542;2023-07-13T09:57:57;5.80;;;2.47;;
462;SDS011;218;51.902;9.542;2023-07-13T10:00:30;4.20;;;2.97;;
462;SDS011;218;51.902;9.542;2023-07-13T10:02:58;2.90;;;2.23;;
462;SDS011;218;51.902;9.542;2023-07-13T10:05:26;2.53;;;2.10;;
462;SDS011;218;51.902;9.542;2023-07-13T10:07:55;3.33;;;2.37;;
462;SDS011;218;51.902;9.542;2023-07-13T10:10:23;3.87;;;2.60;;
462;SDS011;218;51.902;9.542;2023-07-13T10:12:50;2.50;;;1.93;;
462;SDS011;218;51.902;9.542;2023-07-13T10:15:18;3.10;;;2.30;;
462;SDS011;218;51.902;9.542;2023-07-13T10:17:47;5.37;;;2.90;;
462;SDS011;218;51.902;9.542;2023-07-13T10:20:15;3.07;;;2.33;;
462;SDS011;218;51.902;9.542;2023-07-13T10:22:44;5.90;;;3.00;;
462;SDS011;218;51.902;9.542;2023-07-13T10:25:20;3.57;;;2.33;;
462;SDS011;218;51.902;9.542;2023-07-13T10:27:50;2.93;;;2.60;;
462;SDS011;218;51.902;9.542;2023-07-13T10:30:19;4.53;;;2.60;;
462;SDS011;218;51.902;9.542;2023-07-13T10:32:50;3.17;;;2.20;;
462;SDS011;218;51.902;9.542;2023-07-13T10:35:19;2.87;;;2.67;;
462;SDS011;218;51.902;9.542;2023-07-13T10:37:49;2.40;;;2.17;;
462;SDS011;218;51.902;9.542;2023-07-13T10:40:22;2.70;;;2.33;;
462;SDS011;218;51.902;9.542;2023-07-13T10:42:54;3.47;;;2.73;;
462;SDS011;218;51.902;9.542;2023-07-13T10:45:24;3.60;;;2.47;;
462;SDS011;218;51.902;9.542;2023-07-13T10:47:53;2.90;;;2.13;;
462;SDS011;218;51.902;9.542;2023-07-13T10:50:22;4.07;;;2.83;;
462;SDS011;218;51.902;9.542;2023-07-13T10:52:51;3.40;;;2.60;;
462;SDS011;218;51.902;9.542;2023-07-13T10:55:35;5.10;;;3.03;;
462;SDS011;218;51.902;9.542;2023-07-13T10:58:11;2.40;;;2.30;;
462;SDS011;218;51.902;9.542;2023-07-13T11:00:44;3.57;;;3.00;;
462;SDS011;218;51.902;9.542;2023-07-13T11:03:15;3.40;;;2.57;;
462;SDS011;218;51.902;9.542;2023-07-13T11:05:48;2.93;;;2.63;;
462;SDS011;218;51.902;9.542;2023-07-13T11:08:18;4.17;;;2.30;;
462;SDS011;218;51.902;9.542;2023-07-13T11:10:51;3.13;;;2.87;;
462;SDS011;218;51.902;9.542;2023-07-13T11:16:44;3.73;;;2.33;;
462;SDS011;218;51.902;9.542;2023-07-13T11:22:11;3.33;;;2.73;;
462;SDS011;218;51.902;9.542;2023-07-13T11:24:54;3.67;;;2.33;;
462;SDS011;218;51.902;9.542;2023-07-13T11:27:39;4.57;;;2.40;;
462;SDS011;218;51.902;9.542;2023-07-13T11:32:52;2.50;;;2.20;;
462;SDS011;218;51.902;9.542;2023-07-13T11:35:32;3.00;;;2.37;;
462;SDS011;218;51.902;9.542;2023-07-13T11:38:01;2.60;;;2.40;;
462;SDS011;218;51.902;9.542;2023-07-13T11:40:35;3.73;;;2.40;;
462;SDS011;218;51.902;9.542;2023-07-13T11:43:03;2.70;;;2.20;;
462;SDS011;218;51.902;9.542;2023-07-13T11:45:33;7.40;;;2.73;;
462;SDS011;218;51.902;9.542;2023-07-13T11:48:00;4.10;;;2.20;;
462;SDS011;218;51.902;9.542;2023-07-13T11:50:27;4.30;;;2.77;;
462;SDS011;218;51.902;9.542;2023-07-13T11:52:54;2.43;;;2.17;;
462;SDS011;218;51.902;9.542;2023-07-13T11:55:25;2.57;;;2.17;;
462;SDS011;218;51.902;9.542;2023-07-13T11:57:53;3.60;;;2.53;;
462;SDS011;218;51.902;9.542;2023-07-13T12:00:28;5.10;;;2.40;;
462;SDS011;218;51.902;9.542;2023-07-13T12:02:59;2.90;;;1.80;;
462;SDS011;218;51.902;9.542;2023-07-13T12:05:27;2.33;;;2.00;;
462;SDS011;218;51.902;9.542;2023-07-13T12:07:55;2.20;;;2.00;;
462;SDS011;218;51.902;9.542;2023-07-13T12:10:23;3.87;;;2.50;;
462;SDS011;218;51.902;9.542;2023-07-13T12:12:54;5.17;;;2.90;;
462;SDS011;218;51.902;9.542;2023-07-13T12:15:23;2.27;;;2.07;;
462;SDS011;218;51.902;9.542;2023-07-13T12:17:57;4.30;;;2.40;;
462;SDS011;218;51.902;9.542;2023-07-13T12:20:30;3.60;;;2.43;;
462;SDS011;218;51.902;9.542;2023-07-13T12:23:04;5.27;;;2.30;;
462;SDS011;218;51.902;9.542;2023-07-13T12:25:31;4.20;;;2.40;;
462;SDS011;218;51.902;9.542;2023-07-13T12:27:58;4.10;;;2.60;;
462;SDS011;218;51.902;9.542;2023-07-13T12:30:47;5.67;;;2.30;;
462;SDS011;218;51.902;9.542;2023-07-13T12:33:15;2.43;;;1.83;;
462;SDS011;218;51.902;9.542;2023-07-13T12:35:44;3.10;;;1.97;;
462;SDS011;218;51.902;9.542;2023-07-13T12:38:13;2.33;;;1.93;;
462;SDS011;218;51.902;9.542;2023-07-13T12:40:41;2.80;;;2.40;;
462;SDS011;218;51.902;9.542;2023-07-13T12:43:11;2.47;;;1.83;;
462;SDS011;218;51.902;9.542;2023-07-13T12:45:38;4.20;;;2.50;;
462;SDS011;218;51.902;9.542;2023-07-13T12:48:22;3.60;;;2.80;;
462;SDS011;218;51.902;9.542;2023-07-13T12:50:49;4.33;;;2.23;;
462;SDS011;218;51.902;9.542;2023-07-13T12:53:18;3.57;;;2.60;;
462;SDS011;218;51.902;9.542;2023-07-13T12:55:47;3.30;;;2.50;;
462;SDS011;218;51.902;9.542;2023-07-13T12:58:17;2.77;;;2.20;;
462;SDS011;218;51.902;9.542;2023-07-13T13:00:50;4.57;;;2.53;;
462;SDS011;218;51.902;9.542;2023-07-13T13:03:24;4.57;;;2.40;;
462;SDS011;218;51.902;9.542;2023-07-13T13:06:00;3.70;;;2.23;;
462;SDS011;218;51.902;9.542;2023-07-13T13:08:30;2.87;;;2.53;;
462;SDS011;218;51.902;9.542;2023-07-13T13:10:57;2.23;;;1.83;;
462;SDS011;218;51.902;9.542;2023-07-13T13:13:24;2.80;;;2.30;;
462;SDS011;218;51.902;9.542;2023-07-13T13:15:51;3.63;;;2.40;;
462;SDS011;218;51.902;9.542;2023-07-13T13:18:19;2.83;;;2.27;;
462;SDS011;218;51.902;9.542;2023-07-13T13:20:49;4.17;;;3.20;;
462;SDS011;218;51.902;9.542;2023-07-13T13:23:17;3.00;;;2.10;;
462;SDS011;218;51.902;9.542;2023-07-13T13:25:45;3.80;;;2.40;;
462;SDS011;218;51.902;9.542;2023-07-13T13:28:13;2.47;;;2.27;;
462;SDS011;218;51.902;9.542;2023-07-13T13:30:42;4.77;;;2.77;;
462;SDS011;218;51.902;9.542;2023-07-13T13:33:10;2.63;;;2.00;;
462;SDS011;218;51.902;9.542;2023-07-13T13:35:38;7.40;;;2.30;;
462;SDS011;218;51.902;9.542;2023-07-13T13:38:13;4.00;;;2.10;;
462;SDS011;218;51.902;9.542;2023-07-13T13:40:40;3.23;;;1.57;;
462;SDS011;218;51.902;9.542;2023-07-13T13:43:14;2.77;;;1.80;;
462;SDS011;218;51.902;9.542;2023-07-13T13:45:42;1.70;;;1.60;;
462;SDS011;218;51.902;9.542;2023-07-13T13:48:13;2.30;;;2.00;;
462;SDS011;218;51.902;9.542;2023-07-13T13:50:41;1.97;;;1.83;;
462;SDS011;218;51.902;9.542;2023-07-13T13:53:13;2.30;;;2.07;;
462;SDS011;218;51.902;9.542;2023-07-13T13:55:40;2.43;;;2.13;;
462;SDS011;218;51.902;9.542;2023-07-13T13:58:10;2.93;;;2.30;;
462;SDS011;218;51.902;9.542;2023-07-13T14:00:37;3.47;;;2.53;;
462;SDS011;218;51.902;9.542;2023-07-13T14:03:04;3.07;;;2.33;;
462;SDS011;218;51.902;9.542;2023-07-13T14:05:34;2.40;;;2.20;;
462;SDS011;218;51.902;9.542;2023-07-13T14:08:01;2.67;;;2.47;;
462;SDS011;218;51.902;9.542;2023-07-13T14:10:30;3.80;;;2.50;;
462;SDS011;218;51.902;9.542;2023-07-13T14:12:57;5.00;;;2.30;;
462;SDS011;218;51.902;9.542;2023-07-13T14:15:27;2.50;;;2.30;;
462;SDS011;218;51.902;9.542;2023-07-13T14:17:56;2.60;;;2.10;;
462;SDS011;218;51.902;9.542;2023-07-13T14:20:23;3.10;;;2.20;;
462;SDS011;218;51.902;9.542;2023-07-13T14:22:51;4.03;;;2.40;;
462;SDS011;218;51.902;9.542;2023-07-13T14:25:20;4.03;;;2.67;;
462;SDS011;218;51.902;9.542;2023-07-13T14:27:56;3.17;;;2.87;;
462;SDS011;218;51.902;9.542;2023-07-13T14:30:25;5.70;;;2.33;;
462;SDS011;218;51.902;9.542;2023-07-13T14:32:52;3.43;;;2.47;;
462;SDS011;218;51.902;9.542;2023-07-13T14:35:22;5.60;;;2.87;;
462;SDS011;218;51.902;9.542;2023-07-13T14:37:49;2.73;;;2.53;;
462;SDS011;218;51.902;9.542;2023-07-13T14:40:17;4.63;;;2.80;;
462;SDS011;218;51.902;9.542;2023-07-13T14:42:49;4.07;;;3.30;;
462;SDS011;218;51.902;9.542;2023-07-13T14:45:20;2.73;;;2.53;;
462;SDS011;218;51.902;9.542;2023-07-13T14:47:47;3.20;;;3.00;;
462;SDS011;218;51.902;9.542;2023-07-13T14:50:14;2.67;;;2.47;;
462;SDS011;218;51.902;9.542;2023-07-13T14:52:43;2.77;;;2.57;;
462;SDS011;218;51.902;9.542;2023-07-13T14:55:11;3.70;;;2.60;;
462;SDS011;218;51.902;9.542;2023-07-13T14:57:39;3.50;;;2.40;;
462;SDS011;218;51.902;9.542;2023-07-13T15:00:09;2.93;;;2.47;;
462;SDS011;218;51.902;9.542;2023-07-13T15:02:42;2.90;;;2.60;;
462;SDS011;218;51.902;9.542;2023-07-13T15:05:15;3.90;;;2.70;;
462;SDS011;218;51.902;9.542;2023-07-13T15:07:44;4.13;;;2.20;;
462;SDS011;218;51.902;9.542;2023-07-13T15:10:12;2.87;;;2.67;;
462;SDS011;218;51.902;9.542;2023-07-13T15:12:40;2.43;;;2.20;;
462;SDS011;218;51.902;9.542;2023-07-13T15:15:07;5.30;;;2.30;;
462;SDS011;218;51.902;9.542;2023-07-13T15:17:35;3.17;;;2.27;;
462;SDS011;218;51.902;9.542;2023-07-13T15:20:05;2.70;;;2.30;;
462;SDS011;218;51.902;9.542;2023-07-13T15:22:44;2.27;;;2.10;;
462;SDS011;218;51.902;9.542;2023-07-13T15:25:14;3.53;;;2.50;;
462;SDS011;218;51.902;9.542;2023-07-13T15:27:44;3.03;;;2.73;;
462;SDS011;218;51.902;9.542;2023-07-13T15:30:11;4.93;;;2.10;;
462;SDS011;218;51.902;9.542;2023-07-13T15:32:39;2.83;;;2.63;;
462;SDS011;218;51.902;9.542;2023-07-13T15:35:14;3.00;;;2.80;;
462;SDS011;218;51.902;9.542;2023-07-13T15:37:43;3.20;;;2.60;;
462;SDS011;218;51.902;9.542;2023-07-13T15:40:10;2.70;;;2.50;;
462;SDS011;218;51.902;9.542;2023-07-13T15:42:38;3.60;;;2.50;;
462;SDS011;218;51.902;9.542;2023-07-13T15:45:17;3.30;;;2.30;;
462;SDS011;218;51.902;9.542;2023-07-13T15:47:45;2.53;;;2.33;;
462;SDS011;218;51.902;9.542;2023-07-13T15:50:15;3.00;;;2.80;;
462;SDS011;218;51.902;9.542;2023-07-13T15:52:45;3.33;;;2.57;;
462;SDS011;218;51.902;9.542;2023-07-13T15:55:14;2.83;;;2.63;;
462;SDS011;218;51.902;9.542;2023-07-13T15:57:41;3.97;;;2.90;;
462;SDS011;218;51.902;9.542;2023-07-13T16:00:18;3.10;;;2.90;;
462;SDS011;218;51.902;9.542;2023-07-13T16:02:48;3.60;;;2.77;;
462;SDS011;218;51.902;9.542;2023-07-13T16:05:17;2.80;;;2.60;;
462;SDS011;218;51.902;9.542;2023-07-13T16:07:46;3.17;;;2.77;;